sensor_id;sensor_type;location;lat;lon;timestamp;P1;durP1;ratioP1;P2;durP2;ratioP2
24617;SDS011;12762;51.730;5.356;2024-03-22T00:02:05;52.83;;;23.67;;
24617;SDS011;12762;51.730;5.356;2024-03-22T00:04:31;50.97;;;23.67;;
24617;SDS011;12762;51.730;5.356;2024-03-22T00:06:57;52.47;;;24.50;;
24617;SDS011;12762;51.730;5.356;2024-03-22T00:09:23;53.13;;;24.43;;
24617;SDS011;12762;51.730;5.356;2024-03-22T00:11:52;55.60;;;24.17;;
24617;SDS011;12762;51.730;5.356;2024-03-22T00:14:18;55.67;;;26.00;;
24617;SDS011;12762;51.730;5.356;2024-03-22T00:16:43;52.57;;;25.10;;
24617;SDS011;12762;51.730;5.356;2024-03-22T00:19:09;51.77;;;25.13;;
24617;SDS011;12762;51.730;5.356;2024-03-22T00:21:35;60.73;;;25.73;;
24617;SDS011;12762;51.730;5.356;2024-03-22T00:24:01;54.77;;;23.73;;
24617;SDS011;12762;51.730;5.356;2024-03-22T00:26:27;54.63;;;25.07;;
24617;SDS011;12762;51.730;5.356;2024-03-22T00:28:53;53.47;;;24.57;;
24617;SDS011;12762;51.730;5.356;2024-03-22T00:31:18;54.90;;;25.27;;
24617;SDS011;12762;51.730;5.356;2024-03-22T00:33:44;55.13;;;25.97;;
24617;SDS011;12762;51.730;5.356;2024-03-22T00:36:10;54.53;;;24.10;;
24617;SDS011;12762;51.730;5.356;2024-03-22T00:38:36;50.77;;;24.00;;
24617;SDS011;12762;51.730;5.356;2024-03-22T00:41:02;52.60;;;24.63;;
24617;SDS011;12762;51.730;5.356;2024-03-22T00:43:34;54.27;;;25.47;;
24617;SDS011;12762;51.730;5.356;2024-03-22T00:46:00;53.40;;;24.83;;
24617;SDS011;12762;51.730;5.356;2024-03-22T00:48:30;51.47;;;24.47;;
24617;SDS011;12762;51.730;5.356;2024-03-22T00:50:56;52.80;;;24.47;;
24617;SDS011;12762;51.730;5.356;2024-03-22T00:53:22;56.23;;;25.67;;
24617;SDS011;12762;51.730;5.356;2024-03-22T00:55:47;55.57;;;24.63;;
24617;SDS011;12762;51.730;5.356;2024-03-22T00:58:17;51.03;;;24.43;;
24617;SDS011;12762;51.730;5.356;2024-03-22T01:00:49;56.07;;;25.37;;
24617;SDS011;12762;51.730;5.356;2024-03-22T01:03:14;53.90;;;24.53;;
24617;SDS011;12762;51.730;5.356;2024-03-22T01:05:40;51.70;;;25.97;;
24617;SDS011;12762;51.730;5.356;2024-03-22T01:08:07;50.70;;;24.83;;
24617;SDS011;12762;51.730;5.356;2024-03-22T01:10:33;50.10;;;23.83;;
24617;SDS011;12762;51.730;5.356;2024-03-22T01:12:59;55.23;;;24.90;;
24617;SDS011;12762;51.730;5.356;2024-03-22T01:15:25;49.93;;;24.17;;
24617;SDS011;12762;51.730;5.356;2024-03-22T01:17:52;50.80;;;25.07;;
24617;SDS011;12762;51.730;5.356;2024-03-22T01:20:18;56.33;;;27.10;;
24617;SDS011;12762;51.730;5.356;2024-03-22T01:22:44;49.67;;;24.50;;
24617;SDS011;12762;51.730;5.356;2024-03-22T01:25:09;49.30;;;24.90;;
24617;SDS011;12762;51.730;5.356;2024-03-22T01:27:35;52.50;;;23.30;;
24617;SDS011;12762;51.730;5.356;2024-03-22T01:30:01;49.10;;;23.60;;
24617;SDS011;12762;51.730;5.356;2024-03-22T01:32:28;51.23;;;25.87;;
24617;SDS011;12762;51.730;5.356;2024-03-22T01:34:53;47.90;;;23.37;;
24617;SDS011;12762;51.730;5.356;2024-03-22T01:37:19;53.67;;;23.67;;
24617;SDS011;12762;51.730;5.356;2024-03-22T01:39:46;54.53;;;23.77;;
24617;SDS011;12762;51.730;5.356;2024-03-22T01:42:11;47.90;;;23.00;;
24617;SDS011;12762;51.730;5.356;2024-03-22T01:44:37;49.37;;;23.90;;
24617;SDS011;12762;51.730;5.356;2024-03-22T01:47:03;52.83;;;24.07;;
24617;SDS011;12762;51.730;5.356;2024-03-22T01:49:29;50.03;;;24.77;;
24617;SDS011;12762;51.730;5.356;2024-03-22T01:51:55;57.43;;;26.33;;
24617;SDS011;12762;51.730;5.356;2024-03-22T01:54:21;50.47;;;24.03;;
24617;SDS011;12762;51.730;5.356;2024-03-22T01:56:47;50.37;;;23.20;;
24617;SDS011;12762;51.730;5.356;2024-03-22T01:59:16;49.17;;;24.33;;
24617;SDS011;12762;51.730;5.356;2024-03-22T02:01:46;48.37;;;23.90;;
24617;SDS011;12762;51.730;5.356;2024-03-22T02:04:12;48.27;;;23.67;;
24617;SDS011;12762;51.730;5.356;2024-03-22T02:06:39;53.30;;;24.90;;
24617;SDS011;12762;51.730;5.356;2024-03-22T02:09:05;49.63;;;24.13;;
24617;SDS011;12762;51.730;5.356;2024-03-22T02:11:34;53.83;;;25.60;;
24617;SDS011;12762;51.730;5.356;2024-03-22T02:14:03;48.30;;;23.53;;
24617;SDS011;12762;51.730;5.356;2024-03-22T02:16:29;49.07;;;23.83;;
24617;SDS011;12762;51.730;5.356;2024-03-22T02:18:55;49.27;;;24.30;;
24617;SDS011;12762;51.730;5.356;2024-03-22T02:21:21;54.80;;;24.40;;
24617;SDS011;12762;51.730;5.356;2024-03-22T02:23:47;54.30;;;25.23;;
24617;SDS011;12762;51.730;5.356;2024-03-22T02:26:13;48.93;;;23.37;;
24617;SDS011;12762;51.730;5.356;2024-03-22T02:28:38;50.07;;;23.80;;
24617;SDS011;12762;51.730;5.356;2024-03-22T02:31:04;45.23;;;22.83;;
24617;SDS011;12762;51.730;5.356;2024-03-22T02:33:30;54.30;;;23.43;;
24617;SDS011;12762;51.730;5.356;2024-03-22T02:35:56;45.93;;;22.87;;
24617;SDS011;12762;51.730;5.356;2024-03-22T02:38:22;52.23;;;23.93;;
24617;SDS011;12762;51.730;5.356;2024-03-22T02:40:49;47.70;;;23.13;;
24617;SDS011;12762;51.730;5.356;2024-03-22T02:43:18;42.90;;;22.73;;
24617;SDS011;12762;51.730;5.356;2024-03-22T02:45:45;46.33;;;22.30;;
24617;SDS011;12762;51.730;5.356;2024-03-22T02:48:11;47.83;;;24.17;;
24617;SDS011;12762;51.730;5.356;2024-03-22T02:50:37;46.37;;;22.10;;
24617;SDS011;12762;51.730;5.356;2024-03-22T02:53:03;44.63;;;21.57;;
24617;SDS011;12762;51.730;5.356;2024-03-22T02:55:30;47.37;;;23.53;;
24617;SDS011;12762;51.730;5.356;2024-03-22T02:58:01;49.27;;;22.47;;
24617;SDS011;12762;51.730;5.356;2024-03-22T03:00:28;43.53;;;23.43;;
24617;SDS011;12762;51.730;5.356;2024-03-22T03:02:53;48.00;;;23.23;;
24617;SDS011;12762;51.730;5.356;2024-03-22T03:05:19;43.63;;;23.77;;
24617;SDS011;12762;51.730;5.356;2024-03-22T03:07:45;43.50;;;22.20;;
24617;SDS011;12762;51.730;5.356;2024-03-22T03:10:12;48.73;;;23.30;;
24617;SDS011;12762;51.730;5.356;2024-03-22T03:12:38;42.20;;;22.03;;
24617;SDS011;12762;51.730;5.356;2024-03-22T03:15:03;45.77;;;22.53;;
24617;SDS011;12762;51.730;5.356;2024-03-22T03:17:30;43.37;;;22.53;;
24617;SDS011;12762;51.730;5.356;2024-03-22T03:19:55;47.50;;;22.77;;
24617;SDS011;12762;51.730;5.356;2024-03-22T03:22:24;46.53;;;22.73;;
24617;SDS011;12762;51.730;5.356;2024-03-22T03:24:50;52.37;;;23.20;;
24617;SDS011;12762;51.730;5.356;2024-03-22T03:27:15;47.30;;;23.60;;
24617;SDS011;12762;51.730;5.356;2024-03-22T03:29:41;48.43;;;23.17;;
24617;SDS011;12762;51.730;5.356;2024-03-22T03:32:07;46.17;;;22.17;;
24617;SDS011;12762;51.730;5.356;2024-03-22T03:34:33;42.67;;;22.30;;
24617;SDS011;12762;51.730;5.356;2024-03-22T03:36:59;43.17;;;20.67;;
24617;SDS011;12762;51.730;5.356;2024-03-22T03:39:26;43.83;;;21.90;;
24617;SDS011;12762;51.730;5.356;2024-03-22T03:41:54;35.77;;;19.60;;
24617;SDS011;12762;51.730;5.356;2024-03-22T03:44:22;38.20;;;19.03;;
24617;SDS011;12762;51.730;5.356;2024-03-22T03:46:48;34.07;;;17.70;;
24617;SDS011;12762;51.730;5.356;2024-03-22T03:49:14;40.20;;;19.33;;
24617;SDS011;12762;51.730;5.356;2024-03-22T03:51:40;35.13;;;18.77;;
24617;SDS011;12762;51.730;5.356;2024-03-22T03:54:05;35.00;;;18.70;;
24617;SDS011;12762;51.730;5.356;2024-03-22T03:56:31;36.00;;;18.50;;
24617;SDS011;12762;51.730;5.356;2024-03-22T03:58:57;39.60;;;18.27;;
24617;SDS011;12762;51.730;5.356;2024-03-22T04:01:23;32.00;;;16.53;;
24617;SDS011;12762;51.730;5.356;2024-03-22T04:03:49;32.77;;;16.67;;
24617;SDS011;12762;51.730;5.356;2024-03-22T04:06:15;31.80;;;16.60;;
24617;SDS011;12762;51.730;5.356;2024-03-22T04:08:40;37.73;;;17.07;;
24617;SDS011;12762;51.730;5.356;2024-03-22T04:11:07;31.17;;;16.17;;
24617;SDS011;12762;51.730;5.356;2024-03-22T04:13:33;35.10;;;16.50;;
24617;SDS011;12762;51.730;5.356;2024-03-22T04:15:59;34.23;;;17.07;;
24617;SDS011;12762;51.730;5.356;2024-03-22T04:18:25;32.87;;;16.57;;
24617;SDS011;12762;51.730;5.356;2024-03-22T04:20:54;34.27;;;16.80;;
24617;SDS011;12762;51.730;5.356;2024-03-22T04:23:21;31.00;;;15.63;;
24617;SDS011;12762;51.730;5.356;2024-03-22T04:25:57;34.73;;;17.30;;
24617;SDS011;12762;51.730;5.356;2024-03-22T04:28:24;29.73;;;16.13;;
24617;SDS011;12762;51.730;5.356;2024-03-22T04:31:09;34.13;;;16.83;;
24617;SDS011;12762;51.730;5.356;2024-03-22T04:33:35;35.50;;;17.43;;
24617;SDS011;12762;51.730;5.356;2024-03-22T04:36:02;30.13;;;15.63;;
24617;SDS011;12762;51.730;5.356;2024-03-22T04:38:29;29.53;;;16.60;;
24617;SDS011;12762;51.730;5.356;2024-03-22T04:40:56;34.17;;;17.33;;
24617;SDS011;12762;51.730;5.356;2024-03-22T04:43:22;34.47;;;17.83;;
24617;SDS011;12762;51.730;5.356;2024-03-22T04:45:49;39.27;;;19.27;;
24617;SDS011;12762;51.730;5.356;2024-03-22T04:48:22;38.63;;;18.90;;
24617;SDS011;12762;51.730;5.356;2024-03-22T04:50:51;36.43;;;18.60;;
24617;SDS011;12762;51.730;5.356;2024-03-22T04:53:18;40.27;;;19.73;;
24617;SDS011;12762;51.730;5.356;2024-03-22T04:55:46;38.27;;;18.73;;
24617;SDS011;12762;51.730;5.356;2024-03-22T05:00:43;36.10;;;19.23;;
24617;SDS011;12762;51.730;5.356;2024-03-22T05:03:09;38.07;;;19.37;;
24617;SDS011;12762;51.730;5.356;2024-03-22T05:05:35;35.17;;;16.90;;
24617;SDS011;12762;51.730;5.356;2024-03-22T05:08:01;34.10;;;17.03;;
24617;SDS011;12762;51.730;5.356;2024-03-22T05:10:31;35.70;;;17.47;;
24617;SDS011;12762;51.730;5.356;2024-03-22T05:12:57;31.20;;;15.07;;
24617;SDS011;12762;51.730;5.356;2024-03-22T05:15:26;30.90;;;15.87;;
24617;SDS011;12762;51.730;5.356;2024-03-22T05:17:52;32.03;;;16.60;;
24617;SDS011;12762;51.730;5.356;2024-03-22T05:20:18;32.27;;;15.57;;
24617;SDS011;12762;51.730;5.356;2024-03-22T05:22:44;30.13;;;15.53;;
24617;SDS011;12762;51.730;5.356;2024-03-22T05:25:13;26.97;;;14.37;;
24617;SDS011;12762;51.730;5.356;2024-03-22T05:27:40;34.57;;;15.97;;
24617;SDS011;12762;51.730;5.356;2024-03-22T05:30:07;29.70;;;15.53;;
24617;SDS011;12762;51.730;5.356;2024-03-22T05:32:34;29.37;;;15.13;;
24617;SDS011;12762;51.730;5.356;2024-03-22T05:35:00;27.60;;;15.03;;
24617;SDS011;12762;51.730;5.356;2024-03-22T05:37:26;32.50;;;15.93;;
24617;SDS011;12762;51.730;5.356;2024-03-22T05:39:52;29.53;;;15.27;;
24617;SDS011;12762;51.730;5.356;2024-03-22T05:42:18;33.83;;;16.77;;
24617;SDS011;12762;51.730;5.356;2024-03-22T05:44:44;28.47;;;14.90;;
24617;SDS011;12762;51.730;5.356;2024-03-22T05:47:10;33.13;;;15.63;;
24617;SDS011;12762;51.730;5.356;2024-03-22T05:49:36;31.17;;;15.93;;
24617;SDS011;12762;51.730;5.356;2024-03-22T05:52:02;29.97;;;15.63;;
24617;SDS011;12762;51.730;5.356;2024-03-22T05:54:28;33.40;;;15.73;;
24617;SDS011;12762;51.730;5.356;2024-03-22T05:56:54;32.17;;;15.17;;
24617;SDS011;12762;51.730;5.356;2024-03-22T05:59:20;32.93;;;16.30;;
24617;SDS011;12762;51.730;5.356;2024-03-22T06:01:46;30.40;;;15.30;;
24617;SDS011;12762;51.730;5.356;2024-03-22T06:04:12;32.53;;;15.67;;
24617;SDS011;12762;51.730;5.356;2024-03-22T06:06:38;30.43;;;14.90;;
24617;SDS011;12762;51.730;5.356;2024-03-22T06:09:04;29.73;;;15.53;;
24617;SDS011;12762;51.730;5.356;2024-03-22T06:11:38;32.33;;;15.37;;
24617;SDS011;12762;51.730;5.356;2024-03-22T06:14:05;31.77;;;15.20;;
24617;SDS011;12762;51.730;5.356;2024-03-22T06:16:30;31.87;;;16.00;;
24617;SDS011;12762;51.730;5.356;2024-03-22T06:18:56;32.17;;;15.27;;
24617;SDS011;12762;51.730;5.356;2024-03-22T06:21:22;34.83;;;16.40;;
24617;SDS011;12762;51.730;5.356;2024-03-22T06:23:50;28.67;;;16.27;;
24617;SDS011;12762;51.730;5.356;2024-03-22T06:26:16;31.47;;;15.73;;
24617;SDS011;12762;51.730;5.356;2024-03-22T06:28:43;34.73;;;15.07;;
24617;SDS011;12762;51.730;5.356;2024-03-22T06:31:08;30.53;;;15.00;;
24617;SDS011;12762;51.730;5.356;2024-03-22T06:33:34;33.23;;;16.23;;
24617;SDS011;12762;51.730;5.356;2024-03-22T06:36:00;29.17;;;15.70;;
24617;SDS011;12762;51.730;5.356;2024-03-22T06:38:28;30.13;;;14.47;;
24617;SDS011;12762;51.730;5.356;2024-03-22T06:40:54;31.87;;;15.67;;
24617;SDS011;12762;51.730;5.356;2024-03-22T06:43:20;36.57;;;17.47;;
24617;SDS011;12762;51.730;5.356;2024-03-22T06:45:46;29.43;;;15.37;;
24617;SDS011;12762;51.730;5.356;2024-03-22T06:48:12;29.27;;;15.37;;
24617;SDS011;12762;51.730;5.356;2024-03-22T06:50:40;30.20;;;15.50;;
24617;SDS011;12762;51.730;5.356;2024-03-22T06:53:07;31.53;;;15.33;;
24617;SDS011;12762;51.730;5.356;2024-03-22T06:55:32;30.47;;;15.60;;
24617;SDS011;12762;51.730;5.356;2024-03-22T06:57:58;26.80;;;15.00;;
24617;SDS011;12762;51.730;5.356;2024-03-22T07:00:24;31.83;;;15.43;;
24617;SDS011;12762;51.730;5.356;2024-03-22T07:02:50;28.10;;;15.63;;
24617;SDS011;12762;51.730;5.356;2024-03-22T07:05:15;29.57;;;16.47;;
24617;SDS011;12762;51.730;5.356;2024-03-22T07:07:41;30.60;;;16.23;;
24617;SDS011;12762;51.730;5.356;2024-03-22T07:10:07;30.47;;;15.77;;
24617;SDS011;12762;51.730;5.356;2024-03-22T07:12:34;29.50;;;15.93;;
24617;SDS011;12762;51.730;5.356;2024-03-22T07:15:01;28.50;;;15.47;;
24617;SDS011;12762;51.730;5.356;2024-03-22T07:17:28;32.50;;;15.83;;
24617;SDS011;12762;51.730;5.356;2024-03-22T07:19:54;27.77;;;14.60;;
24617;SDS011;12762;51.730;5.356;2024-03-22T07:22:21;28.53;;;15.40;;
24617;SDS011;12762;51.730;5.356;2024-03-22T07:24:50;29.50;;;16.00;;
24617;SDS011;12762;51.730;5.356;2024-03-22T07:27:16;32.67;;;17.00;;
24617;SDS011;12762;51.730;5.356;2024-03-22T07:29:44;27.40;;;14.97;;
24617;SDS011;12762;51.730;5.356;2024-03-22T07:32:09;30.60;;;15.97;;
24617;SDS011;12762;51.730;5.356;2024-03-22T07:34:35;28.43;;;15.73;;
24617;SDS011;12762;51.730;5.356;2024-03-22T07:37:01;28.43;;;16.03;;
24617;SDS011;12762;51.730;5.356;2024-03-22T07:39:27;26.13;;;14.50;;
24617;SDS011;12762;51.730;5.356;2024-03-22T07:41:53;28.97;;;15.70;;
24617;SDS011;12762;51.730;5.356;2024-03-22T07:44:19;27.00;;;15.27;;
24617;SDS011;12762;51.730;5.356;2024-03-22T07:46:45;30.27;;;15.67;;
24617;SDS011;12762;51.730;5.356;2024-03-22T07:49:14;27.93;;;15.37;;
24617;SDS011;12762;51.730;5.356;2024-03-22T07:51:40;27.23;;;14.50;;
24617;SDS011;12762;51.730;5.356;2024-03-22T07:54:05;26.77;;;14.30;;
24617;SDS011;12762;51.730;5.356;2024-03-22T07:56:31;27.70;;;15.23;;
24617;SDS011;12762;51.730;5.356;2024-03-22T07:58:57;29.00;;;15.03;;
24617;SDS011;12762;51.730;5.356;2024-03-22T08:01:23;26.13;;;13.97;;
24617;SDS011;12762;51.730;5.356;2024-03-22T08:03:49;25.17;;;13.67;;
24617;SDS011;12762;51.730;5.356;2024-03-22T08:06:16;25.83;;;13.40;;
24617;SDS011;12762;51.730;5.356;2024-03-22T08:08:42;27.53;;;13.83;;
24617;SDS011;12762;51.730;5.356;2024-03-22T08:11:11;26.40;;;13.50;;
24617;SDS011;12762;51.730;5.356;2024-03-22T08:13:37;28.43;;;13.50;;
24617;SDS011;12762;51.730;5.356;2024-03-22T08:16:03;26.90;;;13.00;;
24617;SDS011;12762;51.730;5.356;2024-03-22T08:18:31;21.60;;;12.30;;
24617;SDS011;12762;51.730;5.356;2024-03-22T08:20:58;24.10;;;12.43;;
24617;SDS011;12762;51.730;5.356;2024-03-22T08:23:24;22.17;;;11.63;;
24617;SDS011;12762;51.730;5.356;2024-03-22T08:25:50;23.60;;;12.73;;
24617;SDS011;12762;51.730;5.356;2024-03-22T08:28:16;23.97;;;12.20;;
24617;SDS011;12762;51.730;5.356;2024-03-22T08:30:42;23.93;;;12.87;;
24617;SDS011;12762;51.730;5.356;2024-03-22T08:33:11;24.27;;;12.73;;
24617;SDS011;12762;51.730;5.356;2024-03-22T08:35:37;21.23;;;11.60;;
24617;SDS011;12762;51.730;5.356;2024-03-22T08:38:03;19.83;;;11.17;;
24617;SDS011;12762;51.730;5.356;2024-03-22T08:40:30;25.13;;;12.00;;
24617;SDS011;12762;51.730;5.356;2024-03-22T08:42:56;22.27;;;11.77;;
24617;SDS011;12762;51.730;5.356;2024-03-22T08:45:22;23.33;;;12.13;;
24617;SDS011;12762;51.730;5.356;2024-03-22T08:47:47;19.93;;;11.17;;
24617;SDS011;12762;51.730;5.356;2024-03-22T08:50:13;21.17;;;11.00;;
24617;SDS011;12762;51.730;5.356;2024-03-22T08:52:39;19.70;;;10.80;;
24617;SDS011;12762;51.730;5.356;2024-03-22T08:55:05;24.80;;;11.13;;
24617;SDS011;12762;51.730;5.356;2024-03-22T08:57:32;22.77;;;11.60;;
24617;SDS011;12762;51.730;5.356;2024-03-22T08:59:58;19.47;;;10.43;;
24617;SDS011;12762;51.730;5.356;2024-03-22T09:02:24;21.10;;;10.57;;
24617;SDS011;12762;51.730;5.356;2024-03-22T09:04:50;21.20;;;11.20;;
24617;SDS011;12762;51.730;5.356;2024-03-22T09:07:16;19.43;;;10.90;;
24617;SDS011;12762;51.730;5.356;2024-03-22T09:09:42;23.40;;;11.23;;
24617;SDS011;12762;51.730;5.356;2024-03-22T09:12:08;21.97;;;10.73;;
24617;SDS011;12762;51.730;5.356;2024-03-22T09:14:34;22.33;;;11.30;;
24617;SDS011;12762;51.730;5.356;2024-03-22T09:17:00;21.83;;;11.73;;
24617;SDS011;12762;51.730;5.356;2024-03-22T09:19:26;20.43;;;10.43;;
24617;SDS011;12762;51.730;5.356;2024-03-22T09:21:51;20.73;;;11.23;;
24617;SDS011;12762;51.730;5.356;2024-03-22T09:24:17;21.97;;;10.70;;
24617;SDS011;12762;51.730;5.356;2024-03-22T09:26:43;24.87;;;11.10;;
24617;SDS011;12762;51.730;5.356;2024-03-22T09:29:09;21.33;;;11.03;;
24617;SDS011;12762;51.730;5.356;2024-03-22T09:31:37;20.93;;;10.70;;
24617;SDS011;12762;51.730;5.356;2024-03-22T09:34:03;19.93;;;11.33;;
24617;SDS011;12762;51.730;5.356;2024-03-22T09:36:29;20.87;;;11.27;;
24617;SDS011;12762;51.730;5.356;2024-03-22T09:38:59;19.33;;;10.73;;
24617;SDS011;12762;51.730;5.356;2024-03-22T09:41:25;21.80;;;10.90;;
24617;SDS011;12762;51.730;5.356;2024-03-22T09:43:51;24.20;;;11.70;;
24617;SDS011;12762;51.730;5.356;2024-03-22T09:46:20;20.97;;;11.13;;
24617;SDS011;12762;51.730;5.356;2024-03-22T09:48:47;22.20;;;11.27;;
24617;SDS011;12762;51.730;5.356;2024-03-22T09:51:17;19.63;;;10.33;;
24617;SDS011;12762;51.730;5.356;2024-03-22T09:53:49;22.43;;;11.17;;
24617;SDS011;12762;51.730;5.356;2024-03-22T09:56:18;21.40;;;11.23;;
24617;SDS011;12762;51.730;5.356;2024-03-22T09:58:47;22.63;;;12.07;;
24617;SDS011;12762;51.730;5.356;2024-03-22T10:01:12;24.17;;;12.13;;
24617;SDS011;12762;51.730;5.356;2024-03-22T10:03:39;27.07;;;11.60;;
24617;SDS011;12762;51.730;5.356;2024-03-22T10:06:04;19.13;;;11.27;;
24617;SDS011;12762;51.730;5.356;2024-03-22T10:08:30;21.20;;;11.50;;
24617;SDS011;12762;51.730;5.356;2024-03-22T10:10:57;18.77;;;10.23;;
24617;SDS011;12762;51.730;5.356;2024-03-22T10:13:23;19.07;;;11.23;;
24617;SDS011;12762;51.730;5.356;2024-03-22T10:15:49;23.37;;;12.43;;
24617;SDS011;12762;51.730;5.356;2024-03-22T10:18:14;22.30;;;11.30;;
24617;SDS011;12762;51.730;5.356;2024-03-22T10:20:41;24.43;;;11.87;;
24617;SDS011;12762;51.730;5.356;2024-03-22T10:23:07;22.13;;;11.47;;
24617;SDS011;12762;51.730;5.356;2024-03-22T10:25:34;20.97;;;11.50;;
24617;SDS011;12762;51.730;5.356;2024-03-22T10:28:01;21.30;;;11.53;;
24617;SDS011;12762;51.730;5.356;2024-03-22T10:30:30;20.97;;;11.80;;
24617;SDS011;12762;51.730;5.356;2024-03-22T10:32:57;25.00;;;12.20;;
24617;SDS011;12762;51.730;5.356;2024-03-22T10:35:24;23.73;;;12.23;;
24617;SDS011;12762;51.730;5.356;2024-03-22T10:37:50;20.27;;;11.53;;
24617;SDS011;12762;51.730;5.356;2024-03-22T10:40:17;22.47;;;11.70;;
24617;SDS011;12762;51.730;5.356;2024-03-22T10:42:44;24.03;;;12.00;;
24617;SDS011;12762;51.730;5.356;2024-03-22T10:45:10;21.07;;;12.00;;
24617;SDS011;12762;51.730;5.356;2024-03-22T10:47:37;22.17;;;11.83;;
24617;SDS011;12762;51.730;5.356;2024-03-22T10:50:05;25.17;;;12.73;;
24617;SDS011;12762;51.730;5.356;2024-03-22T10:52:37;22.43;;;11.97;;
24617;SDS011;12762;51.730;5.356;2024-03-22T10:55:12;24.40;;;11.43;;
24617;SDS011;12762;51.730;5.356;2024-03-22T10:58:03;17.13;;;9.80;;
24617;SDS011;12762;51.730;5.356;2024-03-22T11:00:33;20.03;;;10.60;;
24617;SDS011;12762;51.730;5.356;2024-03-22T11:03:03;19.77;;;10.77;;
24617;SDS011;12762;51.730;5.356;2024-03-22T11:05:29;17.43;;;10.60;;
24617;SDS011;12762;51.730;5.356;2024-03-22T11:08:01;21.83;;;11.30;;
24617;SDS011;12762;51.730;5.356;2024-03-22T11:10:34;22.43;;;11.40;;
24617;SDS011;12762;51.730;5.356;2024-03-22T11:13:04;21.47;;;10.47;;
24617;SDS011;12762;51.730;5.356;2024-03-22T11:15:32;19.87;;;10.13;;
24617;SDS011;12762;51.730;5.356;2024-03-22T11:17:58;19.87;;;10.60;;
24617;SDS011;12762;51.730;5.356;2024-03-22T11:20:25;18.47;;;10.03;;
24617;SDS011;12762;51.730;5.356;2024-03-22T11:22:52;20.57;;;10.53;;
24617;SDS011;12762;51.730;5.356;2024-03-22T11:25:18;20.40;;;10.67;;
24617;SDS011;12762;51.730;5.356;2024-03-22T11:27:45;18.50;;;10.80;;
24617;SDS011;12762;51.730;5.356;2024-03-22T11:30:11;18.50;;;9.43;;
24617;SDS011;12762;51.730;5.356;2024-03-22T11:32:38;16.93;;;8.43;;
24617;SDS011;12762;51.730;5.356;2024-03-22T11:35:09;20.47;;;10.10;;
24617;SDS011;12762;51.730;5.356;2024-03-22T11:37:37;18.90;;;9.60;;
24617;SDS011;12762;51.730;5.356;2024-03-22T11:40:04;16.67;;;9.20;;
24617;SDS011;12762;51.730;5.356;2024-03-22T11:42:34;20.87;;;9.33;;
24617;SDS011;12762;51.730;5.356;2024-03-22T11:45:00;14.93;;;8.20;;
24617;SDS011;12762;51.730;5.356;2024-03-22T11:47:27;17.87;;;9.17;;
24617;SDS011;12762;51.730;5.356;2024-03-22T11:49:53;14.73;;;8.23;;
24617;SDS011;12762;51.730;5.356;2024-03-22T11:52:27;15.53;;;8.43;;
24617;SDS011;12762;51.730;5.356;2024-03-22T11:54:53;15.10;;;8.47;;
24617;SDS011;12762;51.730;5.356;2024-03-22T11:57:22;13.30;;;7.50;;
24617;SDS011;12762;51.730;5.356;2024-03-22T11:59:48;14.20;;;7.97;;
24617;SDS011;12762;51.730;5.356;2024-03-22T12:02:15;16.13;;;8.77;;
24617;SDS011;12762;51.730;5.356;2024-03-22T12:04:45;12.53;;;7.37;;
24617;SDS011;12762;51.730;5.356;2024-03-22T12:07:16;14.00;;;8.13;;
24617;SDS011;12762;51.730;5.356;2024-03-22T12:09:43;13.23;;;7.83;;
24617;SDS011;12762;51.730;5.356;2024-03-22T12:12:10;14.60;;;8.47;;
24617;SDS011;12762;51.730;5.356;2024-03-22T12:14:37;12.23;;;7.53;;
24617;SDS011;12762;51.730;5.356;2024-03-22T12:17:04;12.53;;;7.67;;
24617;SDS011;12762;51.730;5.356;2024-03-22T12:19:30;10.87;;;7.27;;
24617;SDS011;12762;51.730;5.356;2024-03-22T12:21:56;12.73;;;7.07;;
24617;SDS011;12762;51.730;5.356;2024-03-22T12:24:23;11.40;;;6.80;;
24617;SDS011;12762;51.730;5.356;2024-03-22T12:26:49;12.13;;;7.07;;
24617;SDS011;12762;51.730;5.356;2024-03-22T12:29:16;9.93;;;6.50;;
24617;SDS011;12762;51.730;5.356;2024-03-22T12:31:42;10.23;;;6.60;;
24617;SDS011;12762;51.730;5.356;2024-03-22T12:34:09;10.00;;;5.77;;
24617;SDS011;12762;51.730;5.356;2024-03-22T12:36:35;10.50;;;5.80;;
24617;SDS011;12762;51.730;5.356;2024-03-22T12:39:00;8.67;;;5.67;;
24617;SDS011;12762;51.730;5.356;2024-03-22T12:41:30;7.03;;;5.23;;
24617;SDS011;12762;51.730;5.356;2024-03-22T12:43:57;9.60;;;5.67;;
24617;SDS011;12762;51.730;5.356;2024-03-22T12:46:23;8.63;;;5.33;;
24617;SDS011;12762;51.730;5.356;2024-03-22T12:48:52;7.77;;;4.70;;
24617;SDS011;12762;51.730;5.356;2024-03-22T12:51:19;8.90;;;5.07;;
24617;SDS011;12762;51.730;5.356;2024-03-22T12:53:49;7.73;;;5.10;;
24617;SDS011;12762;51.730;5.356;2024-03-22T12:56:15;10.20;;;5.67;;
24617;SDS011;12762;51.730;5.356;2024-03-22T12:58:41;8.73;;;5.20;;
24617;SDS011;12762;51.730;5.356;2024-03-22T13:01:08;8.80;;;4.90;;
24617;SDS011;12762;51.730;5.356;2024-03-22T13:03:36;9.00;;;4.60;;
24617;SDS011;12762;51.730;5.356;2024-03-22T13:06:03;6.63;;;4.70;;
24617;SDS011;12762;51.730;5.356;2024-03-22T13:08:31;6.43;;;4.60;;
24617;SDS011;12762;51.730;5.356;2024-03-22T13:10:57;6.63;;;4.50;;
24617;SDS011;12762;51.730;5.356;2024-03-22T13:13:23;7.70;;;4.57;;
24617;SDS011;12762;51.730;5.356;2024-03-22T13:15:49;7.77;;;4.60;;
24617;SDS011;12762;51.730;5.356;2024-03-22T13:18:15;6.13;;;4.17;;
24617;SDS011;12762;51.730;5.356;2024-03-22T13:20:41;7.57;;;4.70;;
24617;SDS011;12762;51.730;5.356;2024-03-22T13:23:07;11.63;;;6.43;;
24617;SDS011;12762;51.730;5.356;2024-03-22T13:25:36;15.40;;;6.97;;
24617;SDS011;12762;51.730;5.356;2024-03-22T13:28:05;17.33;;;7.07;;
24617;SDS011;12762;51.730;5.356;2024-03-22T13:30:31;14.13;;;6.83;;
24617;SDS011;12762;51.730;5.356;2024-03-22T13:32:57;12.90;;;6.53;;
24617;SDS011;12762;51.730;5.356;2024-03-22T13:35:24;14.03;;;7.80;;
24617;SDS011;12762;51.730;5.356;2024-03-22T13:37:50;15.37;;;7.63;;
24617;SDS011;12762;51.730;5.356;2024-03-22T13:40:16;16.37;;;8.33;;
24617;SDS011;12762;51.730;5.356;2024-03-22T13:42:41;13.67;;;7.47;;
24617;SDS011;12762;51.730;5.356;2024-03-22T13:45:07;13.17;;;6.63;;
24617;SDS011;12762;51.730;5.356;2024-03-22T13:47:33;12.03;;;6.70;;
24617;SDS011;12762;51.730;5.356;2024-03-22T13:50:05;12.13;;;6.83;;
24617;SDS011;12762;51.730;5.356;2024-03-22T13:52:33;16.83;;;6.83;;
24617;SDS011;12762;51.730;5.356;2024-03-22T13:55:00;14.00;;;6.87;;
24617;SDS011;12762;51.730;5.356;2024-03-22T13:57:27;13.17;;;6.53;;
24617;SDS011;12762;51.730;5.356;2024-03-22T13:59:53;15.50;;;7.33;;
24617;SDS011;12762;51.730;5.356;2024-03-22T14:02:19;11.43;;;7.00;;
24617;SDS011;12762;51.730;5.356;2024-03-22T14:04:45;12.93;;;6.77;;
24617;SDS011;12762;51.730;5.356;2024-03-22T14:07:11;12.17;;;7.43;;
24617;SDS011;12762;51.730;5.356;2024-03-22T14:09:37;15.30;;;8.27;;
24617;SDS011;12762;51.730;5.356;2024-03-22T14:12:03;14.90;;;7.60;;
24617;SDS011;12762;51.730;5.356;2024-03-22T14:14:29;14.37;;;7.90;;
24617;SDS011;12762;51.730;5.356;2024-03-22T14:16:55;15.77;;;7.90;;
24617;SDS011;12762;51.730;5.356;2024-03-22T14:19:21;15.60;;;7.87;;
24617;SDS011;12762;51.730;5.356;2024-03-22T14:21:47;15.73;;;8.30;;
24617;SDS011;12762;51.730;5.356;2024-03-22T14:24:13;14.60;;;7.70;;
24617;SDS011;12762;51.730;5.356;2024-03-22T14:26:40;13.67;;;7.67;;